Time;durP1;ratioP1;P1;durP2;ratioP2;P2;SDS_P1;SDS_P2;PMS_P1;PMS_P2;Temp;Humidity;BMP_temperature;BMP_pressure;BME280_temperature;BME280_humidity;BME280_pressure;Samples;Min_cycle;Max_cycle;Signal;HPM_P1;HPM_P2
2023/03/17 00:00:45;;;;;;;4.28;2.25;;;7.60;99.90;;;;;;5055273;28;20041;-95
2023/03/17 00:03:25;;;;;;;7.38;2.75;;;7.60;99.90;;;;;;5047682;28;20029;-94
2023/03/17 00:05:53;;;;;;;5.00;2.50;;;7.60;99.90;;;;;;5058182;28;20048;-96
2023/03/17 00:08:24;;;;;;;5.32;2.72;;;7.60;99.90;;;;;;5053130;28;20052;-96
2023/03/17 00:10:53;;;;;;;5.28;2.20;;;7.60;99.90;;;;;;5053058;28;20045;-96
2023/03/17 00:13:19;;;;;;;6.50;2.80;;;7.60;99.90;;;;;;5054504;28;20417;-95
2023/03/17 00:15:49;;;;;;;6.90;2.53;;;7.60;99.90;;;;;;5054031;28;20128;-95
2023/03/17 00:18:17;;;;;;;6.13;2.60;;;7.60;99.90;;;;;;5051927;28;20040;-96
2023/03/17 00:20:44;;;;;;;6.10;2.00;;;7.60;99.90;;;;;;5052580;28;20044;-95
2023/03/17 00:23:19;;;;;;;7.28;2.53;;;7.60;99.90;;;;;;5047020;28;20488;-95
2023/03/17 00:25:45;;;;;;;6.47;2.47;;;7.70;99.90;;;;;;5045838;28;20106;-95
2023/03/17 00:28:26;;;;;;;4.80;2.55;;;7.70;99.90;;;;;;5049477;28;20040;-95
2023/03/17 00:30:55;;;;;;;5.45;2.10;;;7.70;99.90;;;;;;5056238;28;20049;-96
2023/03/17 00:33:27;;;;;;;5.70;2.65;;;7.60;99.90;;;;;;5042210;28;20476;-96
2023/03/17 00:35:57;;;;;;;4.85;2.30;;;7.70;99.90;;;;;;5056239;28;20057;-95
2023/03/17 00:38:23;;;;;;;5.05;2.53;;;7.70;99.90;;;;;;5033568;28;20041;-95
2023/03/17 00:40:49;;;;;;;5.70;2.67;;;7.70;99.90;;;;;;5040764;28;20064;-96
2023/03/17 00:43:16;;;;;;;6.18;2.70;;;7.60;99.90;;;;;;5036969;28;20073;-96
2023/03/17 00:45:45;;;;;;;5.38;2.72;;;7.60;99.90;;;;;;5049790;28;20048;-96
2023/03/17 00:48:21;;;;;;;6.78;2.42;;;7.60;99.90;;;;;;5037335;28;20044;-95
2023/03/17 00:50:48;;;;;;;6.47;3.13;;;7.60;99.90;;;;;;5049750;28;20124;-96
2023/03/17 00:53:20;;;;;;;6.07;2.75;;;8.00;99.90;;;;;;5055478;28;20040;-95
2023/03/17 00:55:47;;;;;;;5.28;2.72;;;7.60;99.90;;;;;;5043020;28;20092;-96
2023/03/17 00:58:31;;;;;;;5.60;2.45;;;7.60;99.90;;;;;;5057552;28;20051;-96
2023/03/17 01:00:57;;;;;;;6.00;2.45;;;7.60;99.90;;;;;;5043520;28;20546;-95
2023/03/17 01:03:23;;;;;;;5.25;2.65;;;7.60;99.90;;;;;;5033391;28;20146;-95
2023/03/17 01:05:51;;;;;;;6.40;2.65;;;7.70;99.90;;;;;;5052519;28;20047;-96
2023/03/17 01:08:21;;;;;;;6.18;2.60;;;7.70;99.90;;;;;;5057712;28;20480;-96
2023/03/17 01:10:49;;;;;;;5.07;2.55;;;7.70;99.90;;;;;;5054677;28;20041;-96
2023/03/17 01:13:15;;;;;;;5.53;2.30;;;7.70;99.90;;;;;;5062934;28;20044;-96
2023/03/17 01:15:44;;;;;;;6.70;2.90;;;7.70;99.90;;;;;;5053790;28;20117;-95
2023/03/17 01:18:12;;;;;;;5.80;2.83;;;7.70;99.90;;;;;;5032263;28;20033;-96
2023/03/17 01:20:38;;;;;;;8.35;3.13;;;7.70;99.90;;;;;;5043530;28;20044;-96
2023/03/17 01:23:07;;;;;;;6.30;3.00;;;7.70;99.90;;;;;;5062595;28;20048;-96
2023/03/17 01:25:33;;;;;;;5.63;2.38;;;7.70;99.90;;;;;;5060671;28;20041;-96
2023/03/17 01:28:05;;;;;;;8.40;2.63;;;7.70;99.90;;;;;;5060670;28;20048;-96
2023/03/17 01:30:37;;;;;;;6.90;2.83;;;7.70;99.90;;;;;;5060271;28;20103;-96
2023/03/17 01:33:05;;;;;;;6.72;2.78;;;7.70;99.90;;;;;;5055837;28;20041;-96
2023/03/17 01:35:31;;;;;;;5.45;2.85;;;7.70;99.90;;;;;;5062504;28;20037;-96
2023/03/17 01:38:00;;;;;;;5.00;2.63;;;7.80;99.90;;;;;;5057432;28;20100;-96
2023/03/17 01:40:30;;;;;;;6.07;2.45;;;7.70;99.90;;;;;;5058733;28;20072;-96
2023/03/17 01:43:20;;;;;;;7.43;2.40;;;7.70;99.90;;;;;;5060844;28;20047;-96
2023/03/17 01:46:13;;;;;;;4.78;2.42;;;7.70;99.90;;;;;;5044618;28;20045;-96
2023/03/17 01:48:43;;;;;;;8.07;2.83;;;7.70;99.90;;;;;;5062520;28;20049;-96
2023/03/17 01:51:16;;;;;;;7.05;2.53;;;7.70;99.90;;;;;;5064367;28;20049;-96
2023/03/17 01:53:44;;;;;;;5.53;2.70;;;7.70;99.90;;;;;;5101305;22;20112;-96
2023/03/17 01:56:20;;;;;;;5.65;2.70;;;7.70;99.90;;;;;;5049301;28;20498;-96
2023/03/17 01:58:49;;;;;;;5.50;2.80;;;8.30;99.90;;;;;;5064109;28;20048;-96
2023/03/17 02:01:30;;;;;;;6.70;3.67;;;6.70;99.90;;;;;;5055488;28;20046;-96
2023/03/17 02:04:00;;;;;;;4.30;2.28;;;7.90;99.90;;;;;;5071506;28;20049;-96
2023/03/17 02:06:34;;;;;;;6.95;2.90;;;7.60;99.90;;;;;;5063409;28;20045;-96
2023/03/17 02:09:03;;;;;;;;;;;7.60;99.90;;;;;;5064884;28;20048;-96
2023/03/17 02:11:30;;;;;;;6.80;2.88;;;6.70;99.90;;;;;;5059203;28;20331;-96
2023/03/17 02:14:09;;;;;;;6.60;2.72;;;8.90;99.90;;;;;;5061519;28;20081;-96
2023/03/17 02:16:36;;;;;;;5.82;2.63;;;7.60;99.90;;;;;;5062541;28;20060;-96
2023/03/17 02:19:05;;;;;;;5.22;2.53;;;6.90;99.90;;;;;;5067068;28;20525;-96
2023/03/17 02:21:39;;;;;;;6.72;2.80;;;8.10;99.90;;;;;;5066398;28;20049;-96
2023/03/17 02:24:32;;;;;;;5.95;2.63;;;7.60;99.90;;;;;;5063898;28;20096;-96
2023/03/17 02:27:04;;;;;;;5.65;2.83;;;8.20;99.90;;;;;;5064477;28;20053;-96
2023/03/17 02:29:36;;;;;;;6.90;3.45;;;7.60;99.90;;;;;;5065367;28;20037;-96
2023/03/17 02:32:04;;;;;;;6.55;3.05;;;7.90;99.90;;;;;;5061714;28;20045;-96
2023/03/17 02:34:46;;;;;;;7.70;2.67;;;7.60;99.90;;;;;;5065703;28;20025;-96
2023/03/17 02:37:12;;;;;;;4.88;2.53;;;7.70;99.90;;;;;;5058629;28;20037;-96
2023/03/17 02:39:38;;;;;;;5.57;2.38;;;7.40;99.90;;;;;;5064684;28;20037;-96
2023/03/17 02:42:05;;;;;;;5.90;2.60;;;7.50;99.90;;;;;;5057814;28;20037;-96
2023/03/17 02:44:31;;;;;;;6.97;2.97;;;7.50;99.90;;;;;;5100831;22;20060;-96
2023/03/17 02:47:00;;;;;;;6.25;2.72;;;7.50;99.90;;;;;;5067998;28;20044;-95
2023/03/17 02:49:33;;;;;;;8.60;2.70;;;7.50;99.90;;;;;;5054157;28;20061;-96
2023/03/17 02:52:02;;;;;;;8.10;2.60;;;7.50;99.90;;;;;;5075016;22;20117;-96
2023/03/17 02:54:28;;;;;;;6.07;2.60;;;8.50;99.90;;;;;;5024724;28;20054;-96
2023/03/17 02:56:56;;;;;;;7.55;2.72;;;7.50;99.90;;;;;;5024892;28;20058;-96
2023/03/17 02:59:28;;;;;;;7.32;2.75;;;7.80;99.90;;;;;;5023413;28;20058;-96
2023/03/17 03:02:02;;;;;;;4.97;2.72;;;8.50;99.90;;;;;;5053326;22;20046;-96
2023/03/17 03:04:34;;;;;;;7.50;2.83;;;7.40;99.90;;;;;;5037612;28;20049;-96
2023/03/17 03:07:01;;;;;;;5.35;2.60;;;7.50;99.90;;;;;;5028563;28;20089;-96
2023/03/17 03:09:27;;;;;;;5.28;2.63;;;7.60;99.90;;;;;;5037857;28;20048;-96
2023/03/17 03:11:53;;;;;;;5.40;2.58;;;7.50;99.90;;;;;;5065202;28;20045;-96
2023/03/17 03:14:33;;;;;;;7.03;2.70;;;8.00;99.90;;;;;;5046811;28;20038;-96
2023/03/17 03:16:59;;;;;;;5.22;2.50;;;8.50;99.90;;;;;;5046645;28;20051;-96
2023/03/17 03:19:25;;;;;;;5.07;2.58;;;7.50;99.90;;;;;;5041675;28;20073;-96
2023/03/17 03:21:54;;;;;;;6.15;2.40;;;7.60;99.90;;;;;;5055616;28;20041;-95
2023/03/17 03:24:32;;;;;;;5.20;2.88;;;7.60;99.90;;;;;;5049190;28;20041;-96
2023/03/17 03:27:07;;;;;;;5.97;2.45;;;7.50;99.90;;;;;;5065466;28;20166;-96
2023/03/17 03:29:33;;;;;;;5.70;2.88;;;7.60;99.90;;;;;;5059330;28;20057;-95
2023/03/17 03:32:00;;;;;;;5.07;2.60;;;7.60;99.90;;;;;;5026197;28;20037;-96
2023/03/17 03:34:26;;;;;;;6.38;2.42;;;8.50;99.90;;;;;;5031389;28;20503;-95
2023/03/17 03:36:52;;;;;;;6.97;2.67;;;7.80;99.90;;;;;;5055900;28;20076;-96
2023/03/17 03:39:20;;;;;;;6.47;2.53;;;8.70;99.90;;;;;;5058589;28;20033;-96
2023/03/17 03:42:07;;;;;;;6.25;2.40;;;7.60;99.90;;;;;;5052202;28;20040;-96
2023/03/17 03:44:36;;;;;;;4.47;2.40;;;7.50;99.90;;;;;;5080498;23;20057;-96
2023/03/17 03:47:06;;;;;;;6.35;2.83;;;7.50;99.90;;;;;;5043771;28;20377;-96
2023/03/17 03:49:32;;;;;;;5.68;2.38;;;8.60;99.90;;;;;;5032697;28;20053;-96
2023/03/17 03:52:01;;;;;;;5.70;2.65;;;7.30;99.90;;;;;;5032327;28;20484;-96
2023/03/17 03:54:27;;;;;;;6.35;2.35;;;7.60;99.90;;;;;;5032948;28;20048;-96
2023/03/17 03:56:53;;;;;;;4.03;2.15;;;8.70;99.90;;;;;;5036600;28;20049;-95
2023/03/17 03:59:21;;;;;;;8.82;2.65;;;7.20;99.90;;;;;;5015160;28;20053;-96
2023/03/17 04:01:47;;;;;;;9.02;2.75;;;7.40;99.90;;;;;;5029405;28;20064;-96
2023/03/17 04:04:15;;;;;;;6.05;2.83;;;8.70;99.90;;;;;;5037826;28;20041;-96
2023/03/17 04:06:44;;;;;;;4.97;2.35;;;9.00;99.90;;;;;;5055994;28;20045;-96
2023/03/17 04:09:12;;;;;;;5.35;2.78;;;7.70;99.90;;;;;;5056310;28;20042;-96
2023/03/17 04:11:46;;;;;;;4.82;2.55;;;7.00;99.90;;;;;;5027126;28;20064;-96
2023/03/17 04:14:17;;;;;;;6.03;2.53;;;8.50;99.90;;;;;;5042463;28;20030;-96
2023/03/17 04:16:43;;;;;;;5.97;2.60;;;8.60;99.90;;;;;;5041880;28;20069;-96
2023/03/17 04:19:10;;;;;;;5.18;2.75;;;7.50;99.90;;;;;;5043987;28;20048;-96
2023/03/17 04:21:36;;;;;;;5.22;2.92;;;8.80;99.90;;;;;;5037419;28;20050;-96
2023/03/17 04:24:04;;;;;;;7.88;2.80;;;7.50;99.90;;;;;;5036552;28;20107;-96
2023/03/17 04:26:31;;;;;;;5.80;2.65;;;7.50;99.90;;;;;;5041112;28;20088;-96
2023/03/17 04:28:57;;;;;;;6.28;2.45;;;8.40;99.90;;;;;;5038780;28;20045;-96
2023/03/17 04:31:23;;;;;;;6.18;2.63;;;8.30;99.90;;;;;;5054652;28;20033;-96
2023/03/17 04:33:49;;;;;;;6.80;2.85;;;7.50;99.90;;;;;;5050568;28;20064;-96
2023/03/17 04:36:19;;;;;;;6.13;2.78;;;7.50;99.90;;;;;;5041609;28;20429;-96
2023/03/17 04:38:45;;;;;;;6.25;2.30;;;7.50;99.90;;;;;;5025719;28;20035;-96
2023/03/17 04:41:11;;;;;;;4.78;2.65;;;7.50;99.90;;;;;;5044264;28;20124;-96
2023/03/17 04:43:37;;;;;;;5.03;2.90;;;7.50;99.90;;;;;;5046966;28;20042;-96
2023/03/17 04:46:03;;;;;;;5.63;2.65;;;7.50;99.90;;;;;;5051304;28;20060;-96
2023/03/17 04:48:28;;;;;;;7.32;2.50;;;7.50;99.90;;;;;;5049395;28;20045;-96
2023/03/17 04:50:54;;;;;;;4.18;2.20;;;7.50;99.90;;;;;;5039181;28;20232;-96
2023/03/17 04:53:21;;;;;;;6.07;2.70;;;7.50;99.90;;;;;;5042049;28;20037;-96
2023/03/17 04:55:46;;;;;;;6.05;3.03;;;7.40;99.90;;;;;;5039538;28;20046;-96
2023/03/17 04:58:12;;;;;;;6.38;2.35;;;7.50;99.90;;;;;;5054076;28;20481;-96
2023/03/17 05:00:38;;;;;;;6.75;3.00;;;7.40;99.90;;;;;;5044008;28;20045;-96
2023/03/17 05:03:08;;;;;;;5.72;2.47;;;7.40;99.90;;;;;;5039582;28;20068;-96
2023/03/17 05:05:35;;;;;;;4.35;2.33;;;7.40;99.90;;;;;;5015362;28;20034;-95
2023/03/17 05:08:01;;;;;;;7.80;2.85;;;7.40;99.90;;;;;;5041057;28;20037;-96
2023/03/17 05:10:26;;;;;;;5.63;2.40;;;7.40;99.90;;;;;;5039113;28;20056;-96
2023/03/17 05:12:52;;;;;;;6.88;2.80;;;7.40;99.90;;;;;;5043596;28;20025;-96
2023/03/17 05:15:21;;;;;;;6.13;2.88;;;7.40;99.90;;;;;;5032469;28;20057;-96
2023/03/17 05:17:46;;;;;;;7.00;2.97;;;7.40;99.90;;;;;;5039624;28;20095;-96
2023/03/17 05:20:15;;;;;;;5.30;2.45;;;7.40;99.90;;;;;;5041253;28;20434;-96
2023/03/17 05:22:41;;;;;;;6.40;2.65;;;7.50;99.90;;;;;;5022536;28;20052;-96
2023/03/17 05:25:10;;;;;;;5.03;2.40;;;7.40;99.90;;;;;;5157107;22;20056;-96
2023/03/17 05:27:38;;;;;;;6.70;2.75;;;7.50;99.90;;;;;;5098814;28;20072;-96
2023/03/17 05:30:08;;;;;;;7.50;2.75;;;7.40;99.90;;;;;;5088390;28;20036;-96
2023/03/17 05:32:35;;;;;;;7.07;2.38;;;7.50;99.90;;;;;;5080944;28;20343;-96
2023/03/17 05:35:02;;;;;;;5.97;2.80;;;7.40;99.90;;;;;;5081071;28;20044;-96
2023/03/17 05:37:28;;;;;;;9.32;3.40;;;8.30;99.90;;;;;;5085032;28;20036;-96
2023/03/17 05:40:01;;;;;;;4.75;2.50;;;7.50;99.90;;;;;;5080395;28;20074;-96
2023/03/17 05:42:27;;;;;;;5.63;2.50;;;7.50;99.90;;;;;;5071575;28;20041;-96
2023/03/17 05:44:56;;;;;;;5.63;2.63;;;7.50;99.90;;;;;;5075683;28;20083;-96
2023/03/17 05:47:22;;;;;;;7.05;3.80;;;6.50;99.90;;;;;;5074818;28;20044;-96
2023/03/17 05:49:51;;;;;;;8.27;3.53;;;7.50;99.90;;;;;;5052382;28;20039;-96
2023/03/17 05:52:17;;;;;;;13.32;6.38;;;7.00;99.90;;;;;;5067407;28;20110;-96
2023/03/17 05:54:54;;;;;;;14.80;8.18;;;8.40;99.90;;;;;;5075050;28;20041;-96
2023/03/17 05:57:23;;;;;;;9.15;4.72;;;7.40;99.90;;;;;;5085099;28;20040;-96
2023/03/17 05:59:52;;;;;;;9.07;4.50;;;8.10;99.90;;;;;;5069152;28;20040;-96
2023/03/17 06:02:18;;;;;;;6.20;3.45;;;7.50;99.90;;;;;;5081638;28;20044;-87
2023/03/17 06:04:52;;;;;;;6.38;3.63;;;7.30;99.90;;;;;;5070988;28;20059;-96
2023/03/17 06:07:32;;;;;;;8.45;4.13;;;8.30;99.90;;;;;;5068127;28;20132;-96
2023/03/17 06:12:36;;;;;;;6.10;3.25;;;7.50;99.90;;;;;;5096146;22;20479;-96
2023/03/17 06:15:02;;;;;;;7.63;2.75;;;7.60;99.90;;;;;;5065005;28;20076;-96
2023/03/17 06:17:28;;;;;;;7.28;3.30;;;7.60;99.90;;;;;;5033253;28;20492;-90
2023/03/17 06:19:54;;;;;;;6.20;2.85;;;7.60;99.90;;;;;;5019819;28;20060;-90
2023/03/17 06:22:19;;;;;;;5.40;2.65;;;7.60;99.90;;;;;;5029891;28;20037;-91
2023/03/17 06:24:45;;;;;;;6.38;3.00;;;7.60;99.90;;;;;;5016228;28;20041;-92
2023/03/17 06:27:13;;;;;;;6.38;3.05;;;7.70;99.90;;;;;;5017351;28;20049;-92
2023/03/17 06:29:38;;;;;;;8.13;3.08;;;7.80;99.90;;;;;;5037018;28;20030;-90
2023/03/17 06:32:04;;;;;;;6.25;2.58;;;7.60;99.90;;;;;;5036354;28;20273;-91
2023/03/17 06:34:30;;;;;;;5.18;2.75;;;7.70;99.90;;;;;;5022956;28;20037;-90
2023/03/17 06:36:56;;;;;;;6.65;2.90;;;7.70;99.90;;;;;;5020207;28;20416;-91
2023/03/17 06:39:22;;;;;;;7.35;3.75;;;7.80;99.90;;;;;;5020964;28;20075;-94
2023/03/17 06:41:48;;;;;;;7.97;3.42;;;7.70;99.90;;;;;;5029456;28;20037;-89
2023/03/17 06:44:13;;;;;;;6.72;2.70;;;7.70;99.90;;;;;;5042559;28;20146;-92
2023/03/17 06:46:40;;;;;;;7.28;3.17;;;7.70;99.90;;;;;;5024459;28;20508;-92
2023/03/17 06:49:06;;;;;;;6.53;2.83;;;7.70;99.90;;;;;;5030252;28;20052;-91
2023/03/17 06:51:33;;;;;;;7.25;3.00;;;7.70;99.90;;;;;;5006473;28;20170;-92
2023/03/17 06:53:58;;;;;;;7.28;3.25;;;7.70;99.90;;;;;;5035569;28;20037;-92
2023/03/17 06:56:24;;;;;;;6.32;3.13;;;7.70;99.90;;;;;;5032887;28;20045;-92
2023/03/17 06:58:50;;;;;;;8.48;3.35;;;7.80;99.90;;;;;;5031557;28;20038;-92
2023/03/17 07:01:16;;;;;;;6.45;2.60;;;7.80;99.90;;;;;;5021267;28;20094;-89
2023/03/17 07:03:42;;;;;;;10.48;3.33;;;7.80;99.90;;;;;;5028946;28;20117;-86
2023/03/17 07:06:08;;;;;;;5.03;2.42;;;7.80;99.90;;;;;;5017265;28;20045;-84
2023/03/17 07:08:34;;;;;;;5.38;2.92;;;7.90;99.90;;;;;;5030036;28;20049;-86
2023/03/17 07:11:02;;;;;;;5.32;2.88;;;7.80;99.90;;;;;;5029080;28;20439;-86
2023/03/17 07:13:28;;;;;;;6.82;3.17;;;7.90;99.90;;;;;;5022723;28;20044;-87
2023/03/17 07:15:54;;;;;;;6.03;2.67;;;7.90;99.90;;;;;;5030351;28;20045;-87
2023/03/17 07:18:20;;;;;;;8.50;2.80;;;7.90;99.90;;;;;;5011851;28;20173;-90
2023/03/17 07:20:45;;;;;;;4.45;2.40;;;7.90;99.90;;;;;;5015117;28;20120;-86
2023/03/17 07:23:29;;;;;;;9.25;3.35;;;8.00;99.90;;;;;;5015522;28;20045;-85
2023/03/17 07:26:02;;;;;;;6.45;2.80;;;8.00;99.90;;;;;;5040856;28;20480;-85
2023/03/17 07:28:28;;;;;;;9.48;2.65;;;8.40;99.90;;;;;;5019719;28;20370;-85
2023/03/17 07:30:55;;;;;;;6.60;3.10;;;8.80;99.90;;;;;;5037602;28;20570;-86
2023/03/17 07:33:24;;;;;;;7.22;3.03;;;8.00;99.90;;;;;;5011436;28;20060;-86
2023/03/17 07:35:50;;;;;;;7.38;3.00;;;8.10;99.90;;;;;;5025112;28;20044;-87
2023/03/17 07:38:18;;;;;;;7.88;3.08;;;8.10;99.90;;;;;;5038716;28;20037;-86
2023/03/17 07:40:46;;;;;;;4.72;2.70;;;8.20;99.90;;;;;;5020934;28;20045;-87
2023/03/17 07:43:12;;;;;;;5.97;2.92;;;8.20;99.90;;;;;;5034811;28;20472;-84
2023/03/17 07:45:38;;;;;;;6.57;3.28;;;8.70;99.90;;;;;;5042510;28;20036;-85
2023/03/17 07:48:05;;;;;;;10.23;2.85;;;8.30;99.90;;;;;;5037602;28;20056;-86
2023/03/17 07:50:32;;;;;;;6.95;2.70;;;8.30;99.90;;;;;;5018937;28;20051;-85
2023/03/17 07:52:58;;;;;;;6.43;3.15;;;8.50;99.90;;;;;;5035705;28;20091;-85
2023/03/17 07:55:24;;;;;;;6.07;3.15;;;8.50;99.90;;;;;;5014076;28;20073;-85
2023/03/17 07:57:50;;;;;;;7.20;3.08;;;8.50;99.90;;;;;;5024946;28;20557;-85
2023/03/17 08:00:16;;;;;;;6.85;3.35;;;8.60;99.90;;;;;;5021473;28;20045;-85
2023/03/17 08:02:42;;;;;;;7.22;3.03;;;8.70;99.90;;;;;;5041049;28;20041;-85
2023/03/17 08:05:09;;;;;;;6.28;3.00;;;8.70;99.90;;;;;;5025558;28;20049;-84
2023/03/17 08:07:38;;;;;;;8.73;3.50;;;8.80;99.90;;;;;;5015289;28;20099;-85
2023/03/17 08:10:06;;;;;;;6.75;2.97;;;8.80;99.90;;;;;;5043179;28;20037;-85
2023/03/17 08:12:33;;;;;;;6.00;3.20;;;8.90;99.90;;;;;;5023990;28;20060;-84
2023/03/17 08:14:58;;;;;;;6.03;3.20;;;8.90;99.90;;;;;;5021292;28;20128;-85
2023/03/17 08:17:26;;;;;;;5.78;3.03;;;9.00;99.90;;;;;;5019974;28;20123;-85
2023/03/17 08:19:53;;;;;;;6.50;3.00;;;9.00;99.90;;;;;;5023783;28;20506;-85
2023/03/17 08:22:18;;;;;;;7.90;3.10;;;9.00;99.90;;;;;;5016848;28;20033;-84
2023/03/17 08:24:44;;;;;;;6.57;3.20;;;9.00;99.90;;;;;;5039101;28;20087;-84
2023/03/17 08:27:10;;;;;;;9.50;3.20;;;9.10;99.90;;;;;;5047444;28;20036;-85
2023/03/17 08:29:36;;;;;;;6.80;3.47;;;9.10;99.90;;;;;;5027533;28;20079;-87
2023/03/17 08:32:02;;;;;;;5.70;3.28;;;9.10;99.90;;;;;;5017122;28;20040;-89
2023/03/17 08:34:28;;;;;;;5.60;3.00;;;9.20;99.90;;;;;;5011874;28;20033;-89
2023/03/17 08:36:53;;;;;;;4.80;2.92;;;9.20;99.90;;;;;;5027333;28;20040;-89
2023/03/17 08:39:20;;;;;;;5.85;3.17;;;9.20;99.90;;;;;;5011022;28;20041;-89
2023/03/17 08:41:46;;;;;;;7.22;3.28;;;9.20;99.90;;;;;;5049920;28;20084;-90
2023/03/17 08:44:13;;;;;;;5.65;2.83;;;9.30;99.90;;;;;;5007294;28;20076;-89
2023/03/17 08:46:39;;;;;;;6.55;3.28;;;9.30;99.90;;;;;;5000333;28;20077;-90
2023/03/17 08:49:06;;;;;;;7.93;3.00;;;9.40;99.90;;;;;;5002789;28;20499;-90
2023/03/17 08:51:34;;;;;;;7.57;3.22;;;9.40;99.90;;;;;;5015634;28;20041;-88
2023/03/17 08:54:00;;;;;;;6.57;3.13;;;9.50;99.90;;;;;;5025927;28;20037;-90
2023/03/17 08:56:26;;;;;;;5.82;2.97;;;9.50;99.90;;;;;;5003976;28;20033;-90
2023/03/17 08:58:53;;;;;;;6.60;3.70;;;9.60;99.90;;;;;;5038127;28;20118;-90
2023/03/17 09:01:19;;;;;;;6.75;3.20;;;9.70;99.90;;;;;;5017559;28;20037;-89
2023/03/17 09:03:46;;;;;;;6.45;3.30;;;9.80;99.90;;;;;;5028615;28;20732;-90
2023/03/17 09:06:12;;;;;;;6.97;3.80;;;9.80;99.90;;;;;;5022208;28;20510;-90
2023/03/17 09:08:43;;;;;;;7.72;3.20;;;10.70;99.90;;;;;;5028482;28;20049;-89
2023/03/17 09:11:15;;;;;;;7.65;3.20;;;9.90;99.90;;;;;;4994529;28;20512;-90
2023/03/17 09:13:41;;;;;;;5.80;3.17;;;10.50;99.90;;;;;;5006796;28;20045;-90
2023/03/17 09:16:07;;;;;;;5.97;3.15;;;10.10;99.90;;;;;;5004084;28;20739;-90
2023/03/17 09:18:33;;;;;;;6.40;3.40;;;10.10;99.90;;;;;;4992725;28;20500;-90
2023/03/17 09:21:01;;;;;;;6.05;3.33;;;10.40;99.90;;;;;;4995779;28;20066;-89
2023/03/17 09:23:27;;;;;;;7.30;3.30;;;10.30;99.90;;;;;;4998261;28;20042;-91
2023/03/17 09:25:52;;;;;;;7.25;3.30;;;10.40;99.90;;;;;;4996355;28;20048;-91
2023/03/17 09:28:18;;;;;;;9.90;3.25;;;11.00;99.90;;;;;;4988286;28;20030;-89
2023/03/17 09:30:44;;;;;;;9.45;3.03;;;10.60;99.90;;;;;;4993897;28;20527;-90
2023/03/17 09:33:11;;;;;;;7.80;3.33;;;10.60;99.90;;;;;;5004901;28;20073;-90
2023/03/17 09:35:38;;;;;;;6.75;3.85;;;10.70;99.90;;;;;;4998328;28;20580;-91
2023/03/17 09:38:05;;;;;;;7.95;3.78;;;10.70;99.90;;;;;;5001075;28;20076;-88
2023/03/17 09:40:45;;;;;;;8.75;5.03;;;10.70;99.90;;;;;;4994678;28;20045;-88
2023/03/17 09:43:28;;;;;;;13.07;6.35;;;10.90;99.90;;;;;;4999694;28;20092;-88
2023/03/17 09:45:55;;;;;;;7.47;3.53;;;10.90;99.90;;;;;;5002723;28;20046;-88
2023/03/17 09:48:39;;;;;;;15.15;7.78;;;11.00;99.90;;;;;;4998461;28;20054;-88
2023/03/17 09:51:09;;;;;;;9.17;5.77;;;11.90;99.90;;;;;;4998086;28;20046;-88
2023/03/17 09:53:51;;;;;;;6.15;3.60;;;11.20;99.90;;;;;;5006207;28;20301;-86
2023/03/17 09:56:19;;;;;;;10.98;3.63;;;11.30;99.90;;;;;;4986186;28;20038;-89
2023/03/17 09:59:05;;;;;;;6.90;3.63;;;11.60;99.90;;;;;;4987928;28;20452;-89
2023/03/17 10:01:31;;;;;;;7.03;3.20;;;11.90;99.90;;;;;;4993911;28;20164;-90
2023/03/17 10:03:57;;;;;;;9.10;3.90;;;11.80;99.90;;;;;;4980713;28;20042;-90
2023/03/17 10:06:42;;;;;;;12.25;5.78;;;12.20;99.90;;;;;;4994585;28;20042;-89
2023/03/17 10:09:33;;;;;;;7.10;3.60;;;12.30;99.90;;;;;;4988445;28;20046;-90
2023/03/17 10:12:09;;;;;;;8.82;4.13;;;12.50;99.90;;;;;;4996339;28;20070;-90
2023/03/17 10:15:00;;;;;;;10.77;5.07;;;12.60;99.90;;;;;;4999454;28;20041;-89
2023/03/17 10:17:40;;;;;;;10.30;5.10;;;12.70;99.90;;;;;;5001396;28;20053;-89
2023/03/17 10:20:24;;;;;;;8.90;5.07;;;12.90;99.90;;;;;;4998982;28;20037;-89
2023/03/17 10:23:00;;;;;;;11.55;4.03;;;13.10;99.90;;;;;;4999251;28;20100;-89
2023/03/17 10:25:44;;;;;;;6.80;4.07;;;13.20;99.90;;;;;;4997347;28;20129;-89
2023/03/17 10:28:23;;;;;;;8.23;4.40;;;13.50;99.90;;;;;;4997675;28;20069;-90
2023/03/17 10:30:49;;;;;;;11.10;5.22;;;13.60;99.90;;;;;;5010116;28;20038;-89
2023/03/17 10:33:14;;;;;;;7.65;4.15;;;13.70;99.90;;;;;;4999693;28;20038;-89
2023/03/17 10:35:43;;;;;;;10.50;4.45;;;13.80;99.90;;;;;;4998423;28;20070;-90
2023/03/17 10:38:22;;;;;;;8.07;4.20;;;13.90;99.90;;;;;;4997243;28;20057;-88
2023/03/17 10:40:59;;;;;;;7.47;4.63;;;14.30;99.90;;;;;;4992701;28;20042;-89
2023/03/17 10:43:34;;;;;;;7.57;3.80;;;14.10;99.90;;;;;;4995933;28;20049;-90
2023/03/17 10:46:03;;;;;;;8.30;4.68;;;14.30;99.90;;;;;;4995783;28;20038;-91
2023/03/17 10:48:34;;;;;;;7.50;4.10;;;15.00;99.90;;;;;;4984631;28;20045;-88
2023/03/17 10:51:07;;;;;;;7.57;4.07;;;14.50;99.90;;;;;;5002489;28;20046;-89
2023/03/17 10:53:42;;;;;;;9.32;4.18;;;14.60;99.90;;;;;;4998233;28;20374;-90
2023/03/17 10:56:17;;;;;;;10.95;5.82;;;14.70;99.90;;;;;;4995761;28;20034;-89
2023/03/17 10:58:49;;;;;;;10.57;5.70;;;14.70;99.90;;;;;;4985461;28;20113;-92
2023/03/17 11:01:18;;;;;;;13.15;7.30;;;14.90;99.90;;;;;;4997115;28;20430;-91
2023/03/17 11:03:45;;;;;;;8.45;4.03;;;14.90;99.90;;;;;;5005135;28;20053;-92
2023/03/17 11:06:14;;;;;;;9.90;4.40;;;15.10;99.90;;;;;;4999154;28;20046;-93
2023/03/17 11:08:45;;;;;;;8.63;4.45;;;15.20;99.90;;;;;;4992185;28;20043;-91
2023/03/17 11:11:28;;;;;;;8.75;4.97;;;15.30;99.90;;;;;;5012813;28;20064;-93
2023/03/17 11:14:15;;;;;;;9.50;4.53;;;15.30;99.90;;;;;;5038710;28;20073;-92
2023/03/17 11:17:02;;;;;;;10.40;5.05;;;15.20;99.90;;;;;;5040919;28;20025;-89
2023/03/17 11:20:06;;;;;;;11.48;5.45;;;15.20;99.90;;;;;;5004655;28;20037;-92
2023/03/17 11:22:39;;;;;;;11.18;6.65;;;15.30;99.90;;;;;;5020085;28;20167;-91
2023/03/17 11:25:14;;;;;;;9.15;5.05;;;15.30;99.90;;;;;;5016546;28;20056;-91
2023/03/17 11:28:19;;;;;;;7.22;3.90;;;15.50;99.90;;;;;;5021699;28;20500;-92
2023/03/17 11:31:08;;;;;;;8.30;3.83;;;15.40;99.90;;;;;;5025151;28;20091;-88
2023/03/17 11:34:12;;;;;;;7.68;3.53;;;15.50;99.90;;;;;;5018567;28;20627;-89
2023/03/17 11:36:44;;;;;;;8.60;4.00;;;15.60;99.90;;;;;;5020028;28;20572;-91
2023/03/17 11:39:11;;;;;;;7.28;4.18;;;15.80;99.90;;;;;;5002452;28;20041;-91
2023/03/17 11:42:14;;;;;;;9.07;4.50;;;16.00;99.90;;;;;;5017133;28;20041;-90
2023/03/17 11:44:49;;;;;;;7.95;4.45;;;16.20;99.90;;;;;;5005409;28;20054;-92
2023/03/17 11:47:40;;;;;;;11.85;4.78;;;16.20;99.90;;;;;;5037683;28;20084;-89
2023/03/17 11:50:27;;;;;;;9.15;4.63;;;16.40;99.90;;;;;;5029084;28;20112;-87
2023/03/17 11:53:24;;;;;;;7.60;4.50;;;16.40;99.90;;;;;;5010375;28;20052;-86
2023/03/17 11:56:00;;;;;;;8.98;5.15;;;16.60;99.90;;;;;;5030218;28;20037;-88
2023/03/17 11:58:35;;;;;;;8.57;4.65;;;16.70;99.90;;;;;;5011157;28;20373;-86
2023/03/17 12:01:07;;;;;;;8.48;4.30;;;16.80;99.90;;;;;;5015992;28;20119;-87
2023/03/17 12:03:48;;;;;;;8.10;4.60;;;16.80;99.90;;;;;;5003341;28;20044;-89
2023/03/17 12:06:23;;;;;;;8.00;4.43;;;16.90;99.90;;;;;;5042372;28;20036;-90
2023/03/17 12:08:59;;;;;;;8.15;4.93;;;16.80;99.90;;;;;;5030297;28;20496;-89
2023/03/17 12:11:31;;;;;;;9.07;4.60;;;16.80;99.90;;;;;;5040305;28;20048;-88
2023/03/17 12:14:04;;;;;;;10.10;5.07;;;16.80;99.90;;;;;;5038032;28;20037;-90
2023/03/17 12:16:38;;;;;;;9.85;4.50;;;16.90;99.90;;;;;;5022137;28;20041;-90
2023/03/17 12:19:15;;;;;;;7.53;4.57;;;17.20;99.90;;;;;;5015006;28;20045;-89
2023/03/17 12:21:44;;;;;;;7.60;4.50;;;17.00;99.90;;;;;;5014733;28;20041;-89
2023/03/17 12:24:16;;;;;;;9.02;4.68;;;17.00;99.90;;;;;;4998927;28;20041;-88
2023/03/17 12:26:59;;;;;;;8.27;4.85;;;17.00;99.90;;;;;;4999035;28;20045;-89
2023/03/17 12:29:48;;;;;;;8.73;4.63;;;17.00;99.90;;;;;;5002928;28;20037;-89
2023/03/17 12:32:31;;;;;;;11.23;5.00;;;17.00;99.90;;;;;;5026630;28;20048;-89
2023/03/17 12:35:01;;;;;;;7.68;4.70;;;16.90;99.90;;;;;;5004364;28;20037;-89
2023/03/17 12:37:29;;;;;;;10.18;4.97;;;16.90;99.90;;;;;;5029582;28;20518;-89
2023/03/17 12:40:19;;;;;;;9.95;4.97;;;17.10;99.90;;;;;;5001983;28;20130;-86
2023/03/17 12:43:00;;;;;;;9.30;4.72;;;17.00;99.90;;;;;;5008555;28;20049;-86
2023/03/17 12:45:32;;;;;;;9.38;4.55;;;17.00;99.90;;;;;;5014222;28;20042;-86
2023/03/17 12:48:32;;;;;;;8.68;5.20;;;17.00;99.90;;;;;;5044259;28;20037;-86
2023/03/17 12:51:32;;;;;;;9.05;4.97;;;16.80;99.90;;;;;;5030705;28;20124;-86
2023/03/17 12:53:59;;;;;;;9.88;5.22;;;16.70;99.90;;;;;;5029906;28;20038;-86
2023/03/17 12:56:38;;;;;;;11.35;5.28;;;16.70;99.90;;;;;;5010943;28;20045;-87
2023/03/17 12:59:08;;;;;;;10.30;4.75;;;16.40;99.90;;;;;;5037362;28;20033;-86
2023/03/17 13:01:45;;;;;;;11.07;5.93;;;16.30;99.90;;;;;;5010026;28;20126;-86
2023/03/17 13:04:22;;;;;;;8.10;5.30;;;16.20;99.90;;;;;;5036297;28;20069;-86
2023/03/17 13:07:08;;;;;;;11.07;5.65;;;16.10;99.90;;;;;;5034501;28;20045;-86
2023/03/17 13:09:46;;;;;;;8.40;5.57;;;16.10;99.90;;;;;;5021907;28;20049;-86
2023/03/17 13:12:43;;;;;;;10.95;6.13;;;16.10;99.90;;;;;;5000365;28;20057;-91
2023/03/17 13:15:26;;;;;;;9.00;5.43;;;16.10;99.90;;;;;;5044503;28;20551;-89